createdAt,value
2019-01-14T00:03:11.338Z,22.59
2019-01-14T00:08:19.001Z,22.25
2019-01-14T00:13:26.643Z,22.56
2019-01-14T00:18:34.353Z,21.14
2019-01-14T00:23:41.962Z,24.01
2019-01-14T00:28:49.609Z,22.53
2019-01-14T00:33:57.312Z,21.33
2019-01-14T00:39:04.952Z,23.39
2019-01-14T00:44:12.596Z,22.72
2019-01-14T00:49:20.225Z,17.46
2019-01-14T00:54:27.879Z,19.44
2019-01-14T00:59:35.513Z,27.24
2019-01-14T01:04:43.194Z,20.52
2019-01-14T01:09:50.825Z,20.66
2019-01-14T01:14:58.496Z,24.49
2019-01-14T01:20:06.172Z,23.49
2019-01-14T01:25:13.780Z,22.08
2019-01-14T01:30:21.460Z,20.14
2019-01-14T01:35:29.098Z,23.99
2019-01-14T01:40:36.740Z,19.84
2019-01-14T01:45:44.360Z,22.35
2019-01-14T01:50:51.988Z,24.78
2019-01-14T01:55:59.629Z,21.37
2019-01-14T02:01:07.268Z,25.50
2019-01-14T02:06:14.916Z,18.76
2019-01-14T02:11:22.553Z,21.64
2019-01-14T02:16:30.249Z,21.05
2019-01-14T02:21:37.888Z,19.54
2019-01-14T02:26:45.621Z,20.21
2019-01-14T02:31:53.236Z,16.78
2019-01-14T02:37:00.913Z,22.86
2019-01-14T02:42:08.545Z,24.06
2019-01-14T02:47:16.216Z,17.31
2019-01-14T02:52:23.836Z,19.22
2019-01-14T02:57:31.497Z,22.03
2019-01-14T03:02:39.136Z,22.54
2019-01-14T03:07:46.815Z,20.41
2019-01-14T03:12:54.414Z,23.79
2019-01-14T03:18:02.064Z,17.73
2019-01-14T03:23:09.699Z,17.25
2019-01-14T03:28:17.390Z,16.80
2019-01-14T03:33:25.039Z,16.02
2019-01-14T03:38:32.652Z,20.82
2019-01-14T03:43:40.325Z,19.78
2019-01-14T03:48:47.966Z,21.76
2019-01-14T03:53:55.617Z,23.11
2019-01-14T03:59:03.255Z,21.19
2019-01-14T04:04:10.941Z,18.23
2019-01-14T04:09:18.549Z,17.77
2019-01-14T04:14:26.196Z,17.54
2019-01-14T04:19:33.834Z,15.88
2019-01-14T04:24:41.505Z,16.33
2019-01-14T04:29:49.121Z,21.04
2019-01-14T04:34:56.776Z,13.82
2019-01-14T04:40:04.394Z,13.97
2019-01-14T04:45:12.036Z,10.80
2019-01-14T04:50:19.643Z,11.56
2019-01-14T04:55:27.153Z,14.51
2019-01-14T05:00:34.780Z,13.09
2019-01-14T05:05:42.461Z,12.17
2019-01-14T05:10:50.095Z,8.19
2019-01-14T05:15:57.732Z,11.44
2019-01-14T05:21:05.345Z,10.24
2019-01-14T05:26:12.980Z,9.47
2019-01-14T05:31:20.661Z,9.80
2019-01-14T05:36:28.268Z,5.35
2019-01-14T05:41:35.901Z,8.87
2019-01-14T05:46:43.660Z,8.79
2019-01-14T05:51:51.340Z,9.62
2019-01-14T05:56:59.027Z,9.58
2019-01-14T06:02:06.670Z,13.41
2019-01-14T06:07:14.313Z,9.32
2019-01-14T06:12:21.959Z,8.41
2019-01-14T06:17:29.610Z,10.45
2019-01-14T06:22:37.257Z,8.33
2019-01-14T06:27:44.933Z,9.25
2019-01-14T06:32:52.557Z,12.43
2019-01-14T06:38:00.242Z,12.16
2019-01-14T06:43:07.889Z,12.91
2019-01-14T06:48:15.557Z,12.57
2019-01-14T06:53:23.230Z,13.08
2019-01-14T06:58:30.967Z,15.61
2019-01-14T07:03:38.602Z,17.78
2019-01-14T07:08:46.323Z,22.34
2019-01-14T07:13:53.942Z,23.06
2019-01-14T07:19:01.597Z,24.10
2019-01-14T07:24:09.249Z,19.79
2019-01-14T07:29:17.172Z,17.30
2019-01-14T07:34:24.818Z,15.35
2019-01-14T07:39:32.510Z,19.14
2019-01-14T07:44:40.337Z,14.71
2019-01-14T07:49:48.229Z,17.73
2019-01-14T07:54:55.868Z,17.62
2019-01-14T08:00:14.133Z,16.09
2019-01-14T08:05:10.816Z,13.29
2019-01-14T08:10:18.481Z,14.00
2019-01-14T08:15:26.256Z,15.25
2019-01-14T08:20:33.907Z,12.27
2019-01-14T08:25:56.427Z,13.29
2019-01-14T08:30:43.154Z,19.09
2019-01-14T08:36:00.157Z,15.38
2019-01-14T08:40:58.760Z,13.32
2019-01-14T08:46:07.920Z,13.10
2019-01-14T08:51:15.779Z,10.57
2019-01-14T08:56:23.423Z,13.10
2019-01-14T09:01:31.104Z,12.98
2019-01-14T09:06:38.787Z,13.31
2019-01-14T09:12:04.215Z,14.25
2019-01-14T09:16:50.919Z,13.72
2019-01-14T09:22:13.706Z,14.09
2019-01-14T09:27:00.649Z,17.62
2019-01-14T09:32:08.557Z,13.47
2019-01-14T09:37:16.189Z,13.77
2019-01-14T09:42:27.866Z,12.50
2019-01-14T09:47:31.205Z,11.49
2019-01-14T09:52:38.995Z,8.02
2019-01-14T09:57:46.644Z,10.45
2019-01-14T10:02:55.625Z,10.73
2019-01-14T10:08:01.505Z,8.76
2019-01-14T10:13:09.273Z,9.62
2019-01-14T10:18:16.896Z,9.78
2019-01-14T10:23:35.749Z,9.41
2019-01-14T10:28:41.825Z,10.26
2019-01-14T10:33:38.518Z,7.95
2019-01-14T10:38:50.354Z,6.54
2019-01-14T10:43:53.291Z,5.55
2019-01-14T10:49:00.964Z,5.48
2019-01-14T10:54:08.622Z,7.92
2019-01-14T10:59:24.065Z,7.48
2019-01-14T11:04:30.410Z,7.39
2019-01-14T11:09:27.100Z,5.84
2019-01-14T11:14:34.748Z,5.88
2019-01-14T11:19:42.424Z,7.64
2019-01-14T11:24:50.169Z,8.44
2019-01-14T11:29:57.899Z,5.57
2019-01-14T11:35:05.585Z,8.49
2019-01-14T11:40:13.277Z,8.24
2019-01-14T11:45:20.917Z,9.09
2019-01-14T11:50:42.740Z,6.71
2019-01-14T11:55:30.925Z,8.16
2019-01-14T12:00:38.823Z,9.55
2019-01-14T12:05:46.501Z,7.97
2019-01-14T12:10:54.193Z,7.70
2019-01-14T12:16:01.827Z,9.16
2019-01-14T12:21:09.553Z,7.88
2019-01-14T12:26:17.174Z,8.85
2019-01-14T12:31:31.084Z,11.78
2019-01-14T12:36:28.689Z,6.85
2019-01-14T12:41:36.334Z,5.84
2019-01-14T12:46:43.969Z,6.93
2019-01-14T12:51:51.669Z,6.16
2019-01-14T12:56:59.320Z,9.35
2019-01-14T13:02:06.973Z,5.64
2019-01-14T13:07:14.596Z,5.27
2019-01-14T13:12:22.288Z,8.54
2019-01-14T13:17:29.918Z,5.72
2019-01-14T13:22:37.567Z,5.80
2019-01-14T13:27:45.244Z,6.70
2019-01-14T13:32:52.998Z,8.74
2019-01-14T13:38:00.641Z,7.42
2019-01-14T13:43:08.362Z,9.43
2019-01-14T13:48:15.998Z,6.66
2019-01-14T13:53:23.691Z,9.56
2019-01-14T13:58:31.320Z,5.84
2019-01-14T14:03:38.963Z,6.52
2019-01-14T14:08:46.600Z,5.77
2019-01-14T14:13:54.373Z,5.75
2019-01-14T14:19:01.997Z,6.62
2019-01-14T14:24:09.718Z,5.75
2019-01-14T14:29:17.332Z,7.92
2019-01-14T14:34:25.132Z,5.81
2019-01-14T14:39:32.778Z,7.08
2019-01-14T14:44:40.500Z,7.54
2019-01-14T14:49:48.125Z,6.15
2019-01-14T14:54:55.818Z,6.91
2019-01-14T15:00:06.076Z,7.06
2019-01-14T15:05:03.757Z,6.92
2019-01-14T15:10:11.371Z,5.92
2019-01-14T15:15:19.011Z,7.02
2019-01-14T15:20:26.677Z,7.73
2019-01-14T15:25:34.325Z,6.48
2019-01-14T15:30:41.999Z,7.56
2019-01-14T15:36:00.714Z,8.15
2019-01-14T15:40:57.437Z,7.15
2019-01-14T15:46:05.057Z,6.04
2019-01-14T15:51:12.733Z,7.98
2019-01-14T15:56:20.354Z,7.39
2019-01-14T16:01:28.022Z,8.10
2019-01-14T16:06:35.624Z,7.49
2019-01-14T16:11:43.393Z,7.28
2019-01-14T16:16:51.020Z,7.96
2019-01-14T16:21:58.693Z,8.31
2019-01-14T16:27:06.362Z,9.87
2019-01-14T16:32:13.982Z,9.73
2019-01-14T16:37:21.742Z,6.38
2019-01-14T16:42:30.441Z,7.12
2019-01-14T16:47:38.034Z,11.21
2019-01-14T16:52:54.521Z,8.87
2019-01-14T16:57:52.044Z,8.49
2019-01-14T17:02:59.733Z,8.09
2019-01-14T17:08:32.516Z,8.63
2019-01-14T17:13:10.650Z,7.62
2019-01-14T17:18:18.313Z,7.40
2019-01-14T17:23:26.023Z,6.52
2019-01-14T17:28:33.640Z,8.18
2019-01-14T17:33:41.399Z,6.23
2019-01-14T17:38:49.040Z,10.08
2019-01-14T17:43:56.781Z,4.96
2019-01-14T17:49:04.415Z,7.27
2019-01-14T17:54:12.102Z,8.97
2019-01-14T17:59:19.752Z,7.92
2019-01-14T18:04:27.399Z,10.23
2019-01-14T18:09:35.039Z,12.78
2019-01-14T18:14:42.675Z,9.25
2019-01-14T18:19:50.386Z,9.17
2019-01-14T18:24:58.050Z,11.29
2019-01-14T18:30:05.689Z,12.56
2019-01-14T18:35:13.327Z,14.04
2019-01-14T18:40:21.072Z,10.82
2019-01-14T18:45:28.685Z,10.87
2019-01-14T18:50:36.345Z,12.56
2019-01-14T18:55:43.984Z,13.63
2019-01-14T19:00:51.678Z,11.46
2019-01-14T19:05:59.316Z,12.38
2019-01-14T19:11:06.957Z,11.08
2019-01-14T19:16:14.569Z,13.33
2019-01-14T19:21:22.203Z,9.57
2019-01-14T19:26:29.820Z,11.04
2019-01-14T19:31:37.461Z,13.49
2019-01-14T19:36:45.096Z,11.68
2019-01-14T19:41:52.797Z,9.88
2019-01-14T19:47:00.491Z,11.26
2019-01-14T19:52:08.478Z,12.36
2019-01-14T19:57:16.104Z,13.06
2019-01-14T20:02:24.300Z,12.68
2019-01-14T20:07:31.913Z,10.99
2019-01-14T20:12:40.503Z,12.46
2019-01-14T20:17:48.185Z,13.49
2019-01-14T20:22:58.448Z,12.21
2019-01-14T20:28:04.173Z,14.48
2019-01-14T20:33:11.893Z,9.27
2019-01-14T20:38:19.538Z,15.36
2019-01-14T20:43:28.256Z,12.71
2019-01-14T20:48:35.881Z,12.29
2019-01-14T20:53:43.577Z,11.60
2019-01-14T20:58:57.053Z,9.97
2019-01-14T21:03:54.717Z,11.35
2019-01-14T21:09:02.373Z,13.42
2019-01-14T21:14:10.036Z,13.83
2019-01-14T21:19:17.693Z,13.55
2019-01-14T21:24:25.368Z,11.43
2019-01-14T21:29:33.008Z,11.78
2019-01-14T21:34:40.708Z,12.75
2019-01-14T21:39:48.314Z,12.23
2019-01-14T21:44:56.816Z,14.44
2019-01-14T21:50:04.453Z,13.42
2019-01-14T21:55:12.082Z,11.78
2019-01-14T22:00:19.782Z,14.92
2019-01-14T22:05:27.441Z,12.87
2019-01-14T22:10:36.045Z,11.82
2019-01-14T22:15:42.271Z,10.65
2019-01-14T22:20:49.936Z,10.15
2019-01-14T22:25:57.553Z,10.14
2019-01-14T22:31:05.241Z,9.97
2019-01-14T22:36:12.864Z,11.86
2019-01-14T22:41:20.513Z,9.66
2019-01-14T22:46:28.152Z,8.45
2019-01-14T22:51:35.854Z,11.14
2019-01-14T22:56:43.476Z,11.22
2019-01-14T23:01:51.125Z,12.77
2019-01-14T23:06:58.762Z,14.08
2019-01-14T23:12:06.416Z,10.64
2019-01-14T23:17:14.068Z,12.82
2019-01-14T23:22:21.704Z,12.43
2019-01-14T23:27:29.331Z,17.01
2019-01-14T23:32:37.017Z,12.72
2019-01-14T23:37:44.700Z,15.80
2019-01-14T23:42:52.383Z,15.27
2019-01-14T23:48:00.025Z,15.36
2019-01-14T23:53:07.728Z,15.18
2019-01-14T23:58:15.372Z,16.49
